createdAt,value
2023-11-30T00:04:27.332Z,17.73
2023-11-30T00:09:34.012Z,18.00
2023-11-30T00:14:42.083Z,16.95
2023-11-30T00:19:48.560Z,17.07
2023-11-30T00:24:55.138Z,17.35
2023-11-30T00:30:03.027Z,14.98
2023-11-30T00:35:12.109Z,21.55
2023-11-30T00:40:21.314Z,21.80
2023-11-30T00:45:29.123Z,19.77
2023-11-30T00:50:35.567Z,18.20
2023-11-30T00:55:42.023Z,21.58
2023-11-30T01:00:50.295Z,21.48
2023-11-30T01:05:57.308Z,25.10
2023-11-30T01:11:06.026Z,24.52
2023-11-30T01:21:20.158Z,23.33
2023-11-30T01:26:26.810Z,23.52
2023-11-30T01:31:34.866Z,24.02
2023-11-30T01:36:42.093Z,21.60
2023-11-30T01:41:48.609Z,21.67
2023-11-30T01:46:56.756Z,20.95
2023-11-30T01:52:04.068Z,19.58
2023-11-30T01:57:10.553Z,20.40
2023-11-30T02:02:19.896Z,20.27
2023-11-30T02:07:26.495Z,20.42
2023-11-30T02:12:33.700Z,20.25
2023-11-30T02:17:41.623Z,18.65
2023-11-30T02:22:49.700Z,16.73
2023-11-30T02:27:56.423Z,14.98
2023-11-30T02:33:03.353Z,18.45
2023-11-30T02:38:11.126Z,19.05
2023-11-30T02:43:17.607Z,18.90
2023-11-30T02:48:24.203Z,17.35
2023-11-30T02:53:32.120Z,17.90
2023-11-30T02:58:38.621Z,19.67
2023-11-30T03:03:45.082Z,19.05
2023-11-30T03:08:52.944Z,18.02
2023-11-30T03:13:59.610Z,17.98
2023-11-30T03:19:14.608Z,17.85
2023-11-30T03:24:26.671Z,13.93
2023-11-30T03:29:33.026Z,16.40
2023-11-30T03:34:39.405Z,16.75
2023-11-30T03:39:47.585Z,16.77
2023-11-30T03:44:54.036Z,16.83
2023-11-30T03:50:00.459Z,16.52
2023-11-30T03:55:09.348Z,16.17
2023-11-30T04:00:17.925Z,16.92
2023-11-30T04:05:25.601Z,14.35
2023-11-30T04:10:33.261Z,15.55
2023-11-30T04:15:39.984Z,17.73
2023-11-30T04:20:46.583Z,15.00
2023-11-30T04:25:54.324Z,15.32
2023-11-30T04:31:01.888Z,14.77
2023-11-30T04:36:09.827Z,15.00
2023-11-30T04:41:17.894Z,11.50
2023-11-30T04:46:25.135Z,14.48
2023-11-30T04:51:31.757Z,16.27
2023-11-30T04:56:40.225Z,17.95
2023-11-30T05:01:47.355Z,16.95
2023-11-30T05:06:54.294Z,16.50
2023-11-30T05:12:02.376Z,17.73
2023-11-30T05:17:08.857Z,20.77
2023-11-30T05:22:15.210Z,18.30
2023-11-30T05:27:22.957Z,18.33
2023-11-30T05:32:30.051Z,17.48
2023-11-30T05:37:36.762Z,18.23
2023-11-30T05:42:44.737Z,17.65
2023-11-30T05:47:51.335Z,17.10
2023-11-30T05:52:58.113Z,14.45
2023-11-30T05:58:05.948Z,14.65
2023-11-30T06:03:12.591Z,16.52
2023-11-30T06:08:19.183Z,17.52
2023-11-30T06:13:27.339Z,17.15
2023-11-30T06:18:33.962Z,19.17
2023-11-30T06:23:40.798Z,19.58
2023-11-30T06:28:48.499Z,19.60
2023-11-30T06:33:54.733Z,17.23
2023-11-30T06:39:01.392Z,18.40
2023-11-30T06:44:09.460Z,21.23
2023-11-30T06:49:16.006Z,22.77
2023-11-30T06:54:22.302Z,27.13
2023-11-30T06:59:33.255Z,19.98
2023-11-30T07:04:40.418Z,15.98
2023-11-30T07:09:47.473Z,14.73
2023-11-30T07:14:56.107Z,14.75
2023-11-30T07:25:10.864Z,16.63
2023-11-30T07:30:19.270Z,14.45
2023-11-30T07:35:25.623Z,14.65
2023-11-30T07:40:33.811Z,16.15
2023-11-30T07:45:41.758Z,15.63
2023-11-30T07:50:48.022Z,16.67
2023-11-30T07:55:58.440Z,16.98
2023-11-30T08:01:09.600Z,17.00
2023-11-30T08:06:16.046Z,15.27
2023-11-30T08:11:22.814Z,17.88
2023-11-30T08:16:30.397Z,16.40
2023-11-30T08:21:41.760Z,15.48
2023-11-30T08:26:48.544Z,13.77
2023-11-30T08:31:56.346Z,13.63
2023-11-30T08:37:02.646Z,13.43
2023-11-30T08:42:10.905Z,12.53
2023-11-30T08:47:18.566Z,12.02
2023-11-30T08:52:25.617Z,11.63
2023-11-30T08:57:31.888Z,10.90
2023-11-30T09:02:39.744Z,12.98
2023-11-30T09:07:45.991Z,11.02
2023-11-30T09:12:52.288Z,14.75
2023-11-30T09:18:02.527Z,14.27
2023-11-30T09:23:08.829Z,12.73
2023-11-30T09:28:15.324Z,15.70
2023-11-30T09:33:23.230Z,13.65
2023-11-30T09:38:29.702Z,12.83
2023-11-30T09:43:36.522Z,11.35
2023-11-30T09:48:44.392Z,13.23
2023-11-30T09:53:50.857Z,10.90
2023-11-30T09:58:58.375Z,12.38
2023-11-30T10:04:17.339Z,12.70
2023-11-30T10:09:23.788Z,12.13
2023-11-30T10:14:30.369Z,12.63
2023-11-30T10:19:39.977Z,12.73
2023-11-30T10:24:46.567Z,11.90
2023-11-30T10:29:59.254Z,12.13
2023-11-30T10:35:09.155Z,11.68
2023-11-30T10:40:18.979Z,11.30
2023-11-30T10:45:27.644Z,11.13
2023-11-30T10:50:35.679Z,11.30
2023-11-30T10:55:42.855Z,11.87
2023-11-30T11:00:59.730Z,11.40
2023-11-30T11:06:11.912Z,11.48
2023-11-30T11:11:18.538Z,11.00
2023-11-30T11:16:37.461Z,9.68
2023-11-30T11:21:49.695Z,10.18
2023-11-30T11:27:00.955Z,9.38
2023-11-30T11:32:09.297Z,9.50
2023-11-30T11:37:17.668Z,10.25
2023-11-30T11:42:24.227Z,9.93
2023-11-30T11:47:30.929Z,11.13
2023-11-30T11:52:39.186Z,9.23
2023-11-30T11:57:47.699Z,8.60
2023-11-30T12:03:06.060Z,6.20
2023-11-30T12:08:14.273Z,8.10
2023-11-30T12:13:20.803Z,7.60
2023-11-30T12:18:27.212Z,9.45
2023-11-30T12:23:35.481Z,9.60
2023-11-30T12:28:41.793Z,8.98
2023-11-30T12:33:49.487Z,8.45
2023-11-30T12:38:58.039Z,8.70
2023-11-30T12:44:06.311Z,11.05
2023-11-30T12:49:12.783Z,9.02
2023-11-30T12:54:20.738Z,9.52
2023-11-30T12:59:27.132Z,10.67
2023-11-30T13:04:33.525Z,8.57
2023-11-30T13:09:41.713Z,11.07
2023-11-30T13:14:48.242Z,9.23
2023-11-30T13:19:54.618Z,9.20
2023-11-30T13:25:03.070Z,8.77
2023-11-30T13:30:11.746Z,6.88
2023-11-30T13:35:18.295Z,8.55
2023-11-30T13:40:26.410Z,8.05
2023-11-30T13:45:32.829Z,7.87
2023-11-30T13:50:49.096Z,7.82
2023-11-30T13:56:00.879Z,7.45
2023-11-30T14:01:08.826Z,7.90
2023-11-30T14:06:19.605Z,7.63
2023-11-30T14:11:27.981Z,16.52
2023-11-30T14:16:34.765Z,14.97
2023-11-30T14:21:41.734Z,13.75
2023-11-30T14:26:49.902Z,12.40
2023-11-30T14:31:56.347Z,9.23
2023-11-30T14:37:02.998Z,13.88
2023-11-30T14:42:12.042Z,14.98
2023-11-30T14:47:19.647Z,16.52
2023-11-30T14:52:26.360Z,16.90
2023-11-30T14:57:34.267Z,14.52
2023-11-30T15:02:43.107Z,13.57
2023-11-30T15:07:50.029Z,13.68
2023-11-30T15:12:58.050Z,13.32
2023-11-30T15:18:04.694Z,12.03
2023-11-30T15:23:11.390Z,11.40
2023-11-30T15:28:19.885Z,13.43
2023-11-30T15:33:27.771Z,24.80
2023-11-30T15:38:34.322Z,17.53
2023-11-30T15:43:42.390Z,15.57
2023-11-30T15:48:49.207Z,13.05
2023-11-30T15:53:56.118Z,13.02
2023-11-30T15:59:04.583Z,14.30
2023-11-30T16:04:11.403Z,17.25
2023-11-30T16:09:18.317Z,24.05
2023-11-30T16:14:26.992Z,71.18
2023-11-30T16:19:35.773Z,58.53
2023-11-30T16:29:50.232Z,77.28
2023-11-30T16:34:57.456Z,65.00
2023-11-30T16:40:06.195Z,66.90
2023-11-30T16:45:14.857Z,60.42
2023-11-30T16:55:28.254Z,71.45
2023-11-30T17:00:36.590Z,73.55
2023-11-30T17:05:43.595Z,62.42
2023-11-30T17:10:50.612Z,70.18
2023-11-30T17:15:59.150Z,63.53
2023-11-30T17:21:06.297Z,56.47
2023-11-30T17:26:13.405Z,57.08
2023-11-30T17:31:21.733Z,59.75
2023-11-30T17:36:28.371Z,59.15
2023-11-30T17:41:35.323Z,47.05
2023-11-30T17:46:44.665Z,48.15
2023-11-30T17:51:51.484Z,61.03
2023-11-30T17:57:00.240Z,68.55
2023-11-30T18:02:09.117Z,64.18
2023-11-30T18:07:16.401Z,61.75
2023-11-30T18:12:24.265Z,53.53
2023-11-30T18:17:33.508Z,65.20
2023-11-30T18:22:40.891Z,70.78
2023-11-30T18:27:47.736Z,65.55
2023-11-30T18:32:56.802Z,56.33
2023-11-30T18:38:04.010Z,53.42
2023-11-30T18:43:16.948Z,50.42
2023-11-30T18:48:28.614Z,50.83
2023-11-30T18:53:37.607Z,48.25
2023-11-30T18:58:47.041Z,47.72
2023-11-30T19:03:57.689Z,48.97
2023-11-30T19:09:07.381Z,48.38
2023-11-30T19:14:15.821Z,45.20
2023-11-30T19:19:25.262Z,42.50
2023-11-30T19:24:33.513Z,53.13
2023-11-30T19:29:42.760Z,57.73
2023-11-30T19:34:53.564Z,57.42
2023-11-30T19:40:04.280Z,57.30
2023-11-30T19:45:15.342Z,60.50
2023-11-30T19:50:26.296Z,59.22
2023-11-30T19:55:36.080Z,52.90
2023-11-30T20:00:45.680Z,49.72
2023-11-30T20:05:56.604Z,51.92
2023-11-30T20:11:10.822Z,50.45
2023-11-30T20:16:20.736Z,57.22
2023-11-30T20:21:30.748Z,58.03
2023-11-30T20:26:46.017Z,43.22
2023-11-30T20:31:55.930Z,45.78
2023-11-30T20:37:05.804Z,44.83
2023-11-30T20:42:14.210Z,44.15
2023-11-30T20:47:25.287Z,42.83
2023-11-30T20:52:34.243Z,40.33
2023-11-30T21:02:49.938Z,39.08
2023-11-30T21:07:58.832Z,38.78
2023-11-30T21:13:07.053Z,38.33
2023-11-30T21:18:13.486Z,29.15
2023-11-30T21:23:21.432Z,37.20
2023-11-30T21:28:27.849Z,34.73
2023-11-30T21:33:35.007Z,42.28
2023-11-30T21:38:43.104Z,38.40
2023-11-30T21:43:50.586Z,40.25
2023-11-30T21:48:57.217Z,35.60
2023-11-30T21:54:06.049Z,36.47
2023-11-30T21:59:12.767Z,36.97
2023-11-30T22:04:23.498Z,38.50
2023-11-30T22:09:31.772Z,35.90
2023-11-30T22:14:38.178Z,36.33
2023-11-30T22:19:44.471Z,36.97
2023-11-30T22:24:53.046Z,40.65
2023-11-30T22:29:59.357Z,36.28
2023-11-30T22:35:12.117Z,40.05
2023-11-30T22:40:20.620Z,36.78
2023-11-30T22:45:27.065Z,30.80
2023-11-30T22:50:33.734Z,37.88
2023-11-30T22:55:41.745Z,39.45
2023-11-30T23:00:48.560Z,33.83
2023-11-30T23:05:55.423Z,44.25
2023-11-30T23:11:03.701Z,39.15
2023-11-30T23:16:12.909Z,34.72
2023-11-30T23:21:19.749Z,34.00
2023-11-30T23:26:27.469Z,34.10
2023-11-30T23:31:34.356Z,35.67
2023-11-30T23:36:41.081Z,34.30
2023-11-30T23:41:50.743Z,35.53
2023-11-30T23:46:57.320Z,38.53
2023-11-30T23:52:04.040Z,38.42
2023-11-30T23:57:12.063Z,36.03
